GSVT2: Red River, Gainesville, TX

                                SHEF ID:       GSVT2     Red River near Gainesville, TX
STATION TYPE:
Regulating: Stage = 25.00, Flow = 54054

PRECIP STAGE RIV-FLOW BAT-LOAD
in ft cfs volt
Ccp-Rev Ccp-Rev Ccp-Rev Ccp-Rev
(America/Chicago)
05/01 00:00 0.00 6.80 1454 12.41
05/01 01:00 0.00 6.77 1435 12.41
05/01 02:00 0.00 6.75 1423 12.41
05/01 03:00 0.00 6.74 1417 12.41
05/01 04:00 0.00 6.71 1398 12.41
05/01 05:00 0.00 6.70 1392 12.41
05/01 06:00 0.00 6.69 1386 12.33
05/01 07:00 0.00 6.67 1373 12.33
05/01 08:00 0.00 6.66 1367 12.33
05/01 09:00 0.00 6.65 1361 12.57
05/01 10:00 0.00 6.64 1355 13.21
05/01 11:00 0.00 6.63 1349 13.29
05/01 12:00 0.00 6.63 1349 13.29
05/01 13:00 0.00 6.64 1355 13.37
05/01 14:00 0.00 6.64 1355 13.37
05/01 15:00 0.00 6.64 1355 13.29
05/01 16:00 0.00 6.62 1343 13.29
05/01 17:00 0.00 6.62 1343 13.29
05/01 18:00 0.00 6.61 1337 13.29
05/01 19:00 0.00 6.60 1331 13.21
05/01 20:00 0.00 6.58 1319 13.13
05/01 21:00 0.00 6.59 1325 12.73
05/01 22:00 0.00 6.58 1319 12.57
05/01 23:00 0.00 6.57 1313 12.41
Data processed at Sat 02May2026 04:32 GMT

NOTICE: If you are parsing this page

Please convert to using our Data API. Starting early 2026 we will be migrating to: https://water.usace.army.mil with modern pages rendered in JavaScript. When this migration completes you will no longer be able to scrape this page! CWMSDataAPI (CDA)

Timeseries IDs (TSIDs)

TSIDs used from left to right in the data table
GAIN.Precip-Inc.Total.1Hour.1Hour.Ccp-Rev
GAIN.Stage.Inst.1Hour.0.Ccp-Rev
GAIN.Flow.Inst.1Hour.0.Ccp-Rev
GAIN.Volt-Battery Load.Inst.1Hour.0.Ccp-Rev

                            

All information presented herein is the property of the government of the United States of America and may be revised or deleted at any time without prior notice. Dissemination of this information without the expressed written consent of the Public Affairs Office, Tulsa District U.S. Army Corps of Engineers is strictly prohibited. These data are gathered electronically and, as presented, have NOT undergone any form of quality control. These data are NOT guaranteed to be valid or correct.